createdAt,value
2017-08-19T00:00:00.839Z,90.42
2017-08-19T00:02:29.219Z,90.41
2017-08-19T00:04:57.598Z,90.44
2017-08-19T00:07:25.977Z,90.47
2017-08-19T00:09:54.346Z,90.39
2017-08-19T00:12:22.642Z,90.36
2017-08-19T00:14:51.006Z,90.43
2017-08-19T00:17:19.394Z,90.40
2017-08-19T00:19:47.701Z,90.28
2017-08-19T00:22:16.853Z,90.27
2017-08-19T00:24:45.208Z,90.23
2017-08-19T00:27:13.505Z,90.05
2017-08-19T00:29:41.893Z,89.99
2017-08-19T00:32:10.206Z,89.97
2017-08-19T00:34:39.339Z,89.92
2017-08-19T00:37:07.645Z,89.85
2017-08-19T00:39:36.026Z,89.85
2017-08-19T00:42:04.366Z,89.78
2017-08-19T00:44:32.694Z,89.57
2017-08-19T00:47:01.022Z,89.28
2017-08-19T00:49:29.321Z,89.18
2017-08-19T00:51:57.710Z,89.12
2017-08-19T00:54:26.094Z,89.01
2017-08-19T00:56:54.388Z,88.99
2017-08-19T00:59:22.693Z,88.76
2017-08-19T01:01:51.021Z,88.67
2017-08-19T01:04:19.404Z,88.60
2017-08-19T01:06:47.786Z,88.60
2017-08-19T01:09:16.162Z,88.54
2017-08-19T01:11:44.541Z,88.55
2017-08-19T01:14:12.917Z,88.48
2017-08-19T01:16:41.222Z,88.34
2017-08-19T01:19:10.317Z,88.14
2017-08-19T01:21:39.386Z,88.01
2017-08-19T01:24:07.765Z,88.04
2017-08-19T01:27:01.705Z,87.82
2017-08-19T01:29:30.025Z,87.40
2017-08-19T01:31:58.397Z,87.23
2017-08-19T01:34:26.773Z,87.08
2017-08-19T01:36:55.144Z,87.17
2017-08-19T01:39:23.533Z,87.23
2017-08-19T01:41:51.909Z,87.27
2017-08-19T01:44:20.294Z,87.26
2017-08-19T01:46:48.610Z,87.42
2017-08-19T01:49:17.762Z,87.34
2017-08-19T01:51:46.069Z,87.25
2017-08-19T01:54:15.242Z,87.35
2017-08-19T01:56:43.542Z,87.57
2017-08-19T01:59:11.853Z,87.69
2017-08-19T02:01:40.155Z,87.72
2017-08-19T02:04:08.498Z,87.47
2017-08-19T02:06:36.830Z,87.43
2017-08-19T02:09:05.133Z,87.45
2017-08-19T02:11:34.292Z,87.44
2017-08-19T02:14:02.677Z,87.29
2017-08-19T02:19:28.712Z,87.04
2017-08-19T02:21:57.021Z,86.56
2017-08-19T02:24:25.381Z,86.45
2017-08-19T02:26:53.956Z,86.45
2017-08-19T02:29:22.337Z,86.48
2017-08-19T02:31:50.712Z,86.16
2017-08-19T02:34:19.095Z,85.58
2017-08-19T02:36:47.472Z,85.36
2017-08-19T02:39:15.853Z,85.06
2017-08-19T02:41:44.140Z,84.96
2017-08-19T02:44:12.508Z,85.07
2017-08-19T02:46:40.796Z,85.06
2017-08-19T02:49:09.175Z,85.19
2017-08-19T02:51:37.469Z,84.99
2017-08-19T02:54:05.813Z,84.91
2017-08-19T02:56:34.192Z,84.32
2017-08-19T02:59:02.584Z,83.89
2017-08-19T03:01:30.956Z,84.15
2017-08-19T03:03:59.330Z,84.48
2017-08-19T03:06:27.704Z,83.91
2017-08-19T03:08:56.000Z,83.75
2017-08-19T03:11:24.366Z,83.94
2017-08-19T03:13:52.674Z,83.93
2017-08-19T03:16:21.840Z,83.75
2017-08-19T03:18:50.129Z,83.23
2017-08-19T03:21:18.452Z,82.88
2017-08-19T03:23:46.774Z,82.97
2017-08-19T03:26:15.060Z,83.05
2017-08-19T03:28:43.369Z,83.14
2017-08-19T03:31:12.521Z,83.06
2017-08-19T03:33:40.908Z,83.14
2017-08-19T03:36:09.297Z,83.31
2017-08-19T03:38:37.597Z,83.29
2017-08-19T03:41:06.758Z,83.45
2017-08-19T03:43:35.134Z,83.14
2017-08-19T03:46:03.429Z,83.21
2017-08-19T03:48:31.794Z,83.40
2017-08-19T03:51:00.168Z,83.66
2017-08-19T03:53:28.548Z,83.66
2017-08-19T03:55:56.946Z,83.68
2017-08-19T03:58:25.300Z,83.96
2017-08-19T04:00:53.605Z,83.83
2017-08-19T04:03:21.902Z,83.79
2017-08-19T04:05:51.052Z,83.88
2017-08-19T04:08:19.509Z,83.88
2017-08-19T04:10:47.912Z,83.66
2017-08-19T04:13:16.295Z,83.60
2017-08-19T04:15:44.669Z,83.53
2017-08-19T04:18:13.048Z,83.51
2017-08-19T04:20:41.344Z,83.68
2017-08-19T04:23:09.705Z,83.64
2017-08-19T04:25:38.080Z,83.48
2017-08-19T04:28:06.461Z,83.41
2017-08-19T04:30:34.841Z,83.30
2017-08-19T04:33:03.224Z,83.12
2017-08-19T04:35:31.517Z,82.92
2017-08-19T04:37:59.805Z,82.58
2017-08-19T04:40:28.970Z,82.32
2017-08-19T04:42:57.361Z,81.99
2017-08-19T04:45:25.804Z,81.53
2017-08-19T04:47:54.215Z,81.31
2017-08-19T04:50:22.529Z,81.25
2017-08-19T04:52:51.691Z,81.26
2017-08-19T04:55:20.064Z,80.79
2017-08-19T04:57:48.398Z,80.40
2017-08-19T05:00:16.690Z,80.17
2017-08-19T05:02:45.003Z,79.54
2017-08-19T05:05:13.316Z,79.47
2017-08-19T05:07:42.469Z,78.97
2017-08-19T05:10:10.849Z,78.66
2017-08-19T05:12:39.158Z,77.42
2017-08-19T05:15:08.224Z,77.77
2017-08-19T05:17:36.603Z,77.41
2017-08-19T05:20:04.977Z,76.99
2017-08-19T05:22:33.277Z,77.09
2017-08-19T05:25:01.636Z,76.00
2017-08-19T05:27:30.013Z,75.64
2017-08-19T05:29:58.313Z,75.21
2017-08-19T05:32:26.607Z,75.09
2017-08-19T05:34:55.759Z,74.62
2017-08-19T05:37:24.049Z,74.60
2017-08-19T05:39:52.417Z,74.33
2017-08-19T05:42:20.793Z,73.94
2017-08-19T05:44:49.130Z,73.47
2017-08-19T05:47:17.425Z,73.23
2017-08-19T05:49:45.726Z,72.79
2017-08-19T05:52:14.033Z,71.80
2017-08-19T05:54:43.201Z,71.54
2017-08-19T05:57:11.504Z,71.25
2017-08-19T05:59:39.863Z,70.53
2017-08-19T06:02:08.241Z,70.47
2017-08-19T06:04:36.541Z,69.70
2017-08-19T06:07:04.845Z,69.45
2017-08-19T06:09:33.174Z,68.21
2017-08-19T06:12:01.546Z,68.13
2017-08-19T06:14:29.848Z,67.20
2017-08-19T06:16:58.201Z,66.59
2017-08-19T06:19:26.545Z,65.81
2017-08-19T06:21:54.861Z,65.87
2017-08-19T06:24:23.167Z,64.74
2017-08-19T06:26:52.329Z,63.90
2017-08-19T06:29:20.629Z,63.39
2017-08-19T06:31:48.921Z,61.35
2017-08-19T06:34:18.076Z,55.00
2017-08-19T06:36:46.470Z,57.30
2017-08-19T06:39:14.813Z,58.82
2017-08-19T06:41:43.141Z,59.77
2017-08-19T06:44:11.436Z,59.82
2017-08-19T06:46:40.594Z,59.52
2017-08-19T06:49:08.970Z,59.25
2017-08-19T06:51:37.340Z,58.95
2017-08-19T06:54:05.717Z,58.67
2017-08-19T06:56:34.020Z,59.39
2017-08-19T06:59:02.376Z,64.03
2017-08-19T07:01:30.680Z,61.06
2017-08-19T07:03:59.032Z,61.51
2017-08-19T07:06:27.374Z,59.38
2017-08-19T07:08:55.691Z,59.36
2017-08-19T07:11:24.069Z,61.55
2017-08-19T07:13:52.448Z,60.28
2017-08-19T07:16:20.825Z,61.21
2017-08-19T07:18:49.138Z,59.81
2017-08-19T07:21:18.301Z,58.61
2017-08-19T07:23:46.608Z,56.35
2017-08-19T07:26:15.690Z,58.10
2017-08-19T07:28:44.050Z,56.65
2017-08-19T07:31:12.430Z,54.55
2017-08-19T07:33:40.757Z,59.67
2017-08-19T07:36:09.080Z,59.62
2017-08-19T07:38:37.456Z,60.63
2017-08-19T07:41:05.833Z,57.91
2017-08-19T07:43:34.128Z,57.82
2017-08-19T07:46:02.497Z,58.24
2017-08-19T07:48:30.793Z,55.74
2017-08-19T07:50:59.100Z,55.92
2017-08-19T07:53:27.391Z,56.67
2017-08-19T07:55:55.692Z,55.63
2017-08-19T07:58:23.995Z,54.47
2017-08-19T08:00:52.358Z,52.53
2017-08-19T08:03:20.661Z,51.60
2017-08-19T08:05:48.956Z,51.54
2017-08-19T08:08:18.112Z,51.77
2017-08-19T08:10:46.489Z,51.57
2017-08-19T08:13:14.818Z,52.30
2017-08-19T08:15:43.121Z,50.15
2017-08-19T08:18:11.413Z,50.10
2017-08-19T08:20:39.720Z,50.32
2017-08-19T08:23:08.036Z,50.02
2017-08-19T08:25:36.349Z,51.07
2017-08-19T08:28:04.728Z,51.04
2017-08-19T08:30:33.105Z,49.74
2017-08-19T08:33:01.399Z,49.75
2017-08-19T08:35:29.717Z,50.63
2017-08-19T08:37:58.139Z,51.02
2017-08-19T08:40:26.519Z,49.61
2017-08-19T08:42:54.897Z,47.96
2017-08-19T08:45:23.273Z,48.27
2017-08-19T08:47:51.573Z,48.07
2017-08-19T08:50:19.939Z,48.80
2017-08-19T08:52:48.317Z,48.04
2017-08-19T08:55:16.614Z,48.24
2017-08-19T08:57:44.973Z,47.68
2017-08-19T09:00:13.445Z,47.68
2017-08-19T09:02:41.783Z,46.11
2017-08-19T09:05:10.181Z,47.99
2017-08-19T09:07:38.477Z,48.36
2017-08-19T09:10:06.869Z,46.54
2017-08-19T09:12:35.162Z,44.83
2017-08-19T09:15:03.512Z,33.82
2017-08-19T09:17:31.898Z,25.39
2017-08-19T09:20:00.199Z,19.77
2017-08-19T09:22:28.549Z,17.55
2017-08-19T09:24:56.844Z,15.72
2017-08-19T09:27:25.204Z,14.51
2017-08-19T09:29:53.584Z,12.82
2017-08-19T09:32:21.964Z,12.23
2017-08-19T09:34:50.348Z,13.77
2017-08-19T09:37:18.717Z,12.42
2017-08-19T09:39:47.105Z,12.63
2017-08-19T09:42:15.488Z,12.47
2017-08-19T09:44:43.857Z,14.29
2017-08-19T09:47:12.153Z,12.87
2017-08-19T09:49:40.509Z,11.63
2017-08-19T09:52:08.889Z,11.74
2017-08-19T09:54:37.264Z,11.18
2017-08-19T09:57:05.646Z,11.94
2017-08-19T09:59:34.026Z,11.84
2017-08-19T10:02:02.405Z,11.88
2017-08-19T10:04:30.860Z,11.71
2017-08-19T10:06:59.161Z,11.91
2017-08-19T10:09:41.065Z,12.28
2017-08-19T10:12:09.441Z,12.68
2017-08-19T10:14:37.891Z,13.23
2017-08-19T10:17:06.192Z,13.63
2017-08-19T10:19:34.487Z,13.83
2017-08-19T10:22:02.795Z,13.66
2017-08-19T10:24:31.089Z,14.05
2017-08-19T10:26:59.504Z,14.77
2017-08-19T10:29:27.884Z,15.84
2017-08-19T10:31:56.261Z,16.25
2017-08-19T10:34:24.645Z,16.57
2017-08-19T10:36:52.943Z,18.12
2017-08-19T10:39:21.298Z,19.27
2017-08-19T10:41:49.597Z,20.68
2017-08-19T10:44:17.954Z,22.20
2017-08-19T10:46:46.325Z,22.71
2017-08-19T10:49:14.714Z,24.46
2017-08-19T10:51:43.085Z,25.41
2017-08-19T10:54:11.463Z,27.29
2017-08-19T10:56:39.844Z,29.15
2017-08-19T10:59:08.229Z,29.81
2017-08-19T11:01:36.635Z,30.58
2017-08-19T11:04:05.696Z,32.92
2017-08-19T11:06:34.074Z,33.78
2017-08-19T11:09:02.377Z,33.18
2017-08-19T11:11:30.684Z,34.21
2017-08-19T11:13:58.997Z,33.65
2017-08-19T11:16:27.358Z,33.08
2017-08-19T11:18:55.657Z,30.26
2017-08-19T11:21:29.877Z,30.43
2017-08-19T11:23:58.357Z,30.39
2017-08-19T11:26:26.653Z,32.08
2017-08-19T11:28:54.960Z,33.04
2017-08-19T11:31:24.082Z,33.54
2017-08-19T11:33:52.484Z,33.95
2017-08-19T11:36:20.774Z,34.90
2017-08-19T11:38:49.073Z,35.90
2017-08-19T11:41:18.129Z,36.86
2017-08-19T11:43:46.513Z,35.89
2017-08-19T11:46:14.893Z,35.48
2017-08-19T11:48:43.269Z,36.10
2017-08-19T11:51:11.653Z,36.19
2017-08-19T11:53:40.024Z,36.23
2017-08-19T11:56:08.413Z,34.69
2017-08-19T11:58:36.713Z,35.81
2017-08-19T12:01:05.064Z,33.88
2017-08-19T12:03:33.545Z,34.21
2017-08-19T12:06:01.921Z,35.21
2017-08-19T12:08:30.214Z,34.56
2017-08-19T12:10:58.513Z,34.91
2017-08-19T12:13:27.681Z,34.31
2017-08-19T12:15:56.011Z,35.64
2017-08-19T12:18:24.325Z,36.00
2017-08-19T12:20:52.705Z,36.57
2017-08-19T12:23:21.081Z,36.29
2017-08-19T12:25:49.538Z,35.96
2017-08-19T12:28:17.845Z,36.93
2017-08-19T12:30:46.161Z,35.01
2017-08-19T12:33:15.312Z,33.83
2017-08-19T12:35:43.709Z,33.49
2017-08-19T12:38:12.080Z,33.75
2017-08-19T12:40:40.388Z,33.34
2017-08-19T12:43:09.559Z,33.73
2017-08-19T12:45:37.925Z,34.31
2017-08-19T12:48:06.217Z,33.70
2017-08-19T12:50:34.569Z,32.73
2017-08-19T12:53:02.970Z,32.85
2017-08-19T12:55:31.277Z,32.63
2017-08-19T12:58:00.438Z,34.21
2017-08-19T13:00:28.769Z,32.89
2017-08-19T13:02:57.061Z,30.57
2017-08-19T13:05:25.365Z,31.03
2017-08-19T13:07:53.756Z,32.53
2017-08-19T13:10:22.131Z,33.16
2017-08-19T13:12:50.505Z,31.24
2017-08-19T13:15:18.885Z,31.60
2017-08-19T13:17:47.214Z,31.80
2017-08-19T13:20:15.505Z,30.94
2017-08-19T13:22:43.797Z,30.90
2017-08-19T13:25:12.189Z,31.94
2017-08-19T13:27:40.502Z,33.34
2017-08-19T13:30:09.588Z,31.91
2017-08-19T13:32:37.951Z,33.08
2017-08-19T13:35:06.321Z,33.99
2017-08-19T13:37:34.629Z,34.32
2017-08-19T13:40:02.976Z,34.45
2017-08-19T13:42:31.358Z,34.86
2017-08-19T13:44:59.649Z,35.03
2017-08-19T13:47:27.937Z,36.12
2017-08-19T13:49:56.386Z,35.71
2017-08-19T13:52:24.771Z,36.97
2017-08-19T13:54:53.157Z,36.24
2017-08-19T13:57:21.455Z,37.38
2017-08-19T13:59:50.632Z,37.95
2017-08-19T14:02:18.933Z,38.14
2017-08-19T14:04:48.097Z,36.96
2017-08-19T14:07:16.429Z,37.76
2017-08-19T14:09:44.731Z,37.63
2017-08-19T14:12:13.129Z,38.01
2017-08-19T14:14:41.437Z,37.54
2017-08-19T14:17:09.796Z,37.37
2017-08-19T14:19:38.117Z,36.96
2017-08-19T14:22:06.440Z,38.41
2017-08-19T14:24:34.821Z,37.78
2017-08-19T14:27:03.201Z,38.67
2017-08-19T14:29:31.588Z,39.03
2017-08-19T14:31:59.909Z,40.56
2017-08-19T14:34:28.196Z,40.77
2017-08-19T14:36:56.508Z,40.41
2017-08-19T14:39:24.890Z,39.96
2017-08-19T14:41:53.269Z,39.40
2017-08-19T14:44:21.640Z,38.77
2017-08-19T14:46:50.024Z,38.29
2017-08-19T14:49:18.317Z,38.68
2017-08-19T14:51:46.681Z,38.87
2017-08-19T14:54:14.975Z,38.80
2017-08-19T14:56:43.340Z,38.23
2017-08-19T14:59:11.708Z,38.61
2017-08-19T15:01:40.001Z,40.13
2017-08-19T15:04:08.305Z,39.31
2017-08-19T15:06:37.369Z,38.90
2017-08-19T15:09:05.702Z,38.69
2017-08-19T15:11:33.996Z,39.03
2017-08-19T15:14:02.293Z,36.78
2017-08-19T15:16:30.616Z,36.34
2017-08-19T15:18:59.770Z,37.16
2017-08-19T15:21:28.145Z,38.20
2017-08-19T15:23:56.438Z,38.91
2017-08-19T15:26:24.732Z,39.08
2017-08-19T15:28:53.801Z,39.33
2017-08-19T15:31:22.169Z,39.11
2017-08-19T15:33:50.549Z,39.77
2017-08-19T15:36:18.928Z,40.27
2017-08-19T15:38:47.225Z,40.73
2017-08-19T15:41:15.589Z,40.94
2017-08-19T15:43:43.897Z,41.24
2017-08-19T15:46:12.224Z,42.59
2017-08-19T15:48:40.513Z,42.20
2017-08-19T15:51:08.908Z,41.93
2017-08-19T15:53:37.279Z,41.84
2017-08-19T15:56:05.573Z,41.83
2017-08-19T15:58:33.925Z,41.41
2017-08-19T16:01:02.227Z,40.74
2017-08-19T16:03:30.589Z,41.68
2017-08-19T16:05:58.966Z,41.57
2017-08-19T16:08:27.338Z,42.43
2017-08-19T16:10:55.660Z,43.07
2017-08-19T16:13:24.717Z,42.81
2017-08-19T16:15:53.096Z,43.24
2017-08-19T16:18:21.393Z,43.53
2017-08-19T16:20:49.696Z,43.30
2017-08-19T16:23:18.125Z,43.05
2017-08-19T16:25:46.416Z,42.58
2017-08-19T16:28:14.708Z,42.40
2017-08-19T16:30:43.012Z,42.40
2017-08-19T16:33:11.362Z,42.53
2017-08-19T16:35:39.685Z,43.02
2017-08-19T16:38:07.981Z,43.55
2017-08-19T16:40:36.276Z,43.85
2017-08-19T16:43:04.664Z,43.23
2017-08-19T16:45:33.028Z,42.96
2017-08-19T16:48:01.397Z,43.07
2017-08-19T16:50:29.780Z,44.27
2017-08-19T16:52:58.068Z,43.69
2017-08-19T16:55:26.433Z,44.38
2017-08-19T16:57:54.809Z,45.58
2017-08-19T17:00:23.128Z,46.49
2017-08-19T17:02:52.185Z,46.53
2017-08-19T17:05:20.482Z,47.18
2017-08-19T17:07:48.841Z,46.54
2017-08-19T17:10:17.128Z,46.51
2017-08-19T17:12:45.448Z,46.13
2017-08-19T17:15:13.778Z,46.89
2017-08-19T17:17:42.068Z,46.85
2017-08-19T17:20:10.433Z,46.60
2017-08-19T17:22:38.721Z,46.94
2017-08-19T17:25:07.094Z,45.97
2017-08-19T17:27:35.385Z,46.08
2017-08-19T17:30:03.742Z,46.47
2017-08-19T17:32:32.044Z,47.35
2017-08-19T17:35:01.106Z,48.09
2017-08-19T17:37:29.501Z,48.43
2017-08-19T17:39:57.860Z,48.71
2017-08-19T17:42:26.248Z,49.18
2017-08-19T17:44:54.556Z,49.85
2017-08-19T17:47:23.723Z,50.19
2017-08-19T17:49:52.100Z,50.58
2017-08-19T17:52:20.502Z,51.11
2017-08-19T17:54:48.863Z,51.64
2017-08-19T17:57:17.172Z,51.66
2017-08-19T17:59:46.236Z,52.10
2017-08-19T18:02:14.557Z,52.53
2017-08-19T18:04:42.885Z,52.65
2017-08-19T18:07:11.182Z,52.93
2017-08-19T18:09:39.485Z,53.93
2017-08-19T18:12:09.573Z,53.58
2017-08-19T18:14:37.932Z,53.99
2017-08-19T18:17:06.221Z,54.36
2017-08-19T18:19:34.696Z,54.49
2017-08-19T18:22:03.073Z,54.90
2017-08-19T18:24:31.365Z,55.77
2017-08-19T18:26:59.728Z,55.63
2017-08-19T18:29:28.101Z,55.67
2017-08-19T18:31:56.484Z,56.54
2017-08-19T18:34:24.789Z,56.36
2017-08-19T18:36:53.853Z,56.67
2017-08-19T18:39:22.149Z,57.17
2017-08-19T18:41:50.506Z,57.29
2017-08-19T18:44:18.888Z,57.04
2017-08-19T18:46:47.183Z,57.42
2017-08-19T18:49:15.540Z,57.72
2017-08-19T18:51:43.916Z,57.79
2017-08-19T18:54:12.232Z,58.67
2017-08-19T18:56:41.405Z,58.59
2017-08-19T18:59:09.692Z,58.98
2017-08-19T19:01:37.999Z,59.08
2017-08-19T19:04:06.329Z,59.27
2017-08-19T19:06:34.625Z,59.55
2017-08-19T19:09:02.914Z,59.70
2017-08-19T19:11:31.977Z,59.82
2017-08-19T19:14:00.265Z,60.07
2017-08-19T19:16:28.580Z,60.38
2017-08-19T19:18:56.878Z,60.74
2017-08-19T19:21:25.196Z,60.98
2017-08-19T19:23:53.491Z,61.30
2017-08-19T19:26:22.549Z,61.60
2017-08-19T19:28:50.848Z,61.71
2017-08-19T19:31:19.184Z,61.74
2017-08-19T19:33:47.493Z,62.08
2017-08-19T19:36:15.784Z,62.38
2017-08-19T19:38:44.100Z,63.37
2017-08-19T19:41:12.408Z,63.59
2017-08-19T19:43:40.722Z,63.38
2017-08-19T19:46:09.790Z,61.81
2017-08-19T19:48:38.083Z,61.90
2017-08-19T19:51:06.404Z,62.47
2017-08-19T19:53:34.708Z,62.49
2017-08-19T19:56:03.025Z,63.01
2017-08-19T19:58:31.338Z,61.96
2017-08-19T20:00:59.652Z,62.50
2017-08-19T20:03:27.966Z,62.22
2017-08-19T20:05:57.039Z,62.26
2017-08-19T20:08:25.344Z,62.56
2017-08-19T20:10:54.489Z,62.94
2017-08-19T20:13:22.780Z,63.51
2017-08-19T20:15:51.129Z,63.76
2017-08-19T20:18:19.433Z,64.36
2017-08-19T20:20:47.736Z,64.50
2017-08-19T20:23:16.045Z,64.77
2017-08-19T20:25:44.342Z,65.17
2017-08-19T20:28:12.640Z,65.28
2017-08-19T20:30:40.933Z,65.74
2017-08-19T20:33:09.269Z,65.91
2017-08-19T20:35:37.565Z,66.00
2017-08-19T20:38:05.951Z,65.96
2017-08-19T20:40:34.341Z,66.21
2017-08-19T20:43:02.707Z,65.45
2017-08-19T20:45:31.090Z,65.24
2017-08-19T20:47:59.472Z,64.89
2017-08-19T20:50:27.845Z,64.70
2017-08-19T20:52:56.161Z,64.61
2017-08-19T20:55:25.256Z,64.66
2017-08-19T20:57:54.421Z,64.51
2017-08-19T21:00:22.792Z,64.49
2017-08-19T21:02:51.168Z,64.40
2017-08-19T21:05:19.457Z,64.57
2017-08-19T21:07:47.765Z,64.41
2017-08-19T21:10:16.096Z,64.30
2017-08-19T21:12:44.419Z,64.07
2017-08-19T21:15:14.304Z,63.94
2017-08-19T21:17:42.616Z,64.09
2017-08-19T21:20:11.691Z,64.11
2017-08-19T21:22:40.041Z,64.07
2017-08-19T21:25:08.348Z,64.21
2017-08-19T21:27:36.697Z,64.62
2017-08-19T21:30:05.072Z,65.06
2017-08-19T21:32:33.358Z,65.48
2017-08-19T21:35:01.657Z,65.73
2017-08-19T21:37:30.012Z,66.60
2017-08-19T21:39:58.393Z,67.39
2017-08-19T21:42:26.700Z,66.95
2017-08-19T21:44:55.873Z,67.28
2017-08-19T21:47:24.187Z,67.48
2017-08-19T21:49:53.351Z,67.74
2017-08-19T21:52:21.694Z,67.49
2017-08-19T21:54:50.088Z,67.79
2017-08-19T21:57:18.469Z,67.37
2017-08-19T21:59:46.850Z,67.36
2017-08-19T22:02:15.169Z,67.55
2017-08-19T22:04:44.336Z,67.85
2017-08-19T22:07:12.637Z,67.50
2017-08-19T22:09:41.705Z,67.18
2017-08-19T22:12:10.030Z,67.16
2017-08-19T22:14:38.365Z,67.16
2017-08-19T22:17:06.739Z,66.96
2017-08-19T22:19:35.117Z,66.91
2017-08-19T22:22:03.485Z,66.82
2017-08-19T22:24:31.868Z,66.83
2017-08-19T22:27:00.177Z,67.02
2017-08-19T22:29:29.340Z,67.48
2017-08-19T22:31:57.632Z,67.60
2017-08-19T22:34:25.998Z,67.70
2017-08-19T22:36:54.311Z,68.00
2017-08-19T22:39:23.485Z,67.96
2017-08-19T22:41:51.793Z,68.27
2017-08-19T22:44:20.941Z,68.64
2017-08-19T22:46:49.334Z,68.93
2017-08-19T22:49:17.720Z,68.74
2017-08-19T22:51:46.095Z,69.05
2017-08-19T22:54:14.455Z,69.05
2017-08-19T22:56:43.348Z,69.34
2017-08-19T22:59:11.720Z,69.70
2017-08-19T23:01:40.073Z,69.84
2017-08-19T23:04:08.360Z,69.82
2017-08-19T23:06:36.657Z,69.94
2017-08-19T23:09:04.956Z,70.09
2017-08-19T23:11:33.248Z,70.28
2017-08-19T23:14:02.329Z,70.27
2017-08-19T23:16:30.641Z,70.46
2017-08-19T23:18:58.942Z,70.51
2017-08-19T23:21:27.344Z,70.75
2017-08-19T23:23:55.654Z,70.84
2017-08-19T23:26:23.970Z,71.17
2017-08-19T23:28:52.276Z,71.16
2017-08-19T23:31:20.648Z,71.41
2017-08-19T23:33:48.936Z,71.39
2017-08-19T23:36:17.278Z,71.60
2017-08-19T23:38:45.605Z,71.71
2017-08-19T23:41:13.965Z,71.74
2017-08-19T23:43:42.346Z,71.82
2017-08-19T23:46:10.650Z,72.06
2017-08-19T23:48:39.720Z,72.25
2017-08-19T23:51:08.066Z,72.36
2017-08-19T23:53:36.360Z,72.52
2017-08-19T23:56:04.683Z,72.60
2017-08-19T23:58:33.838Z,72.61
